Hatsu Excel — VSXV3 — position and weather

sailwx.info

Track history (hours):
 
Tides and Currents Weather Stations Pressure Air Temp Water Temp Dewpoint Dewpoint Depression Visibility Wind Speed Wind Dir Waves Ship Positions

Hatsu Excel

Last reported at 2015-Aug-28 00:00 UTC. Time now 2015-Aug-30 22:34 UTC.
Position N 52°18' E 164°42'.

Type: Ship (hazmat cat A). MMSI: 235479000.

Wind from 050 at 22 knots

Waves 3.0 meters (10 feet), 7 second period

Barometer 1008.0 mb
Air temperature 13.0 ° C
Visibility: greater than 2.2 NM
Dewpoint 13.0 ° C
Water temperature 11.0 ° C

Date/timePositionNaut miles runAvg speedWind from/ knotsBaromVisibWave heightAir tempDewpointWater temp
2015-Aug-28 00:00N 52°18' E 164°42'87918.3 050 / 221008.0 2.2 3.013.013.011.0
2015-Aug-26 00:00N 43°36' E 147°06'22919.1 330 / 51016.010.8 16.015.214.0
2015-Aug-25 12:00N 41°42' E 142°36'24220.2 120 / 131015.010.8 1.021.515.219.0
2015-Aug-25 00:00N 39°48' E 137°54'24420.3 070 / 271010.0 5.4 3.023.018.524.0
2015-Aug-24 12:00N 37°12' E 133°54'24620.5 040 / 291009.0 5.4 4.027.024.324.0
2015-Aug-24 00:00N 34°30' E 130°06'6618.3 070 / 291007.010.8 4.027.024.324.0
2015-Aug-23 20:25N 33°50' E 129°04'42318.4
2015-Aug-22 21:28N 29°48' E 122°15'12 0.9
2015-Aug-22 08:26N 29°54' E 122°03'75 7.6
2015-Aug-21 22:33N 31°06' E 122°26'1413.5
2015-Aug-21 21:34N 31°11' E 122°11'1414.3
2015-Aug-21 20:34N 31°16' E 121°55'1312.9
2015-Aug-21 19:33N 31°20' E 121°41'6 5.7
2015-Aug-21 18:32N 31°23' E 121°35'0 0.0
2015-Aug-21 17:32N 31°23' E 121°35'0 0.0
2015-Aug-21 16:32N 31°23' E 121°35'0 0.0
2015-Aug-21 15:32N 31°23' E 121°35'0 0.0
2015-Aug-21 14:32N 31°23' E 121°35'0 0.0
2015-Aug-21 13:29N 31°23' E 121°35'0 0.0
2015-Aug-21 12:32N 31°23' E 121°35'0 0.0
2015-Aug-21 11:32N 31°23' E 121°35'0 0.0
2015-Aug-21 10:32N 31°23' E 121°35'0 0.0
2015-Aug-21 09:32N 31°23' E 121°35'0 0.0
2015-Aug-21 08:32N 31°23' E 121°35'1 0.8
2015-Aug-21 07:34N 31°23' E 121°34'9 9.0
2015-Aug-21 06:33N 31°19' E 121°44'1010.5
2015-Aug-21 05:33N 31°16' E 121°55'1111.2
2015-Aug-21 04:33N 31°13' E 122°08'1010.3
2015-Aug-21 03:33N 31°07' E 122°18'8 8.1
2015-Aug-21 02:33N 31°07' E 122°27'9 8.5
2015-Aug-21 01:32N 31°14' E 122°33'  
Track history (hours):
 
Tides and Currents Weather Stations Pressure Air Temp Water Temp Dewpoint Dewpoint Depression Visibility Wind Speed Wind Dir Waves Ship Positions

Hatsu Excel

Last reported at 2015-Aug-28 00:00 UTC. Time now 2015-Aug-30 22:34 UTC.
Position N 52°18' E 164°42'.

Type: Ship (hazmat cat A). MMSI: 235479000.

Wind from 050 at 22 knots

Waves 3.0 meters (10 feet), 7 second period

Barometer 1008.0 mb
Air temperature 13.0 ° C
Visibility: greater than 2.2 NM
Dewpoint 13.0 ° C
Water temperature 11.0 ° C

Date/timePositionNaut miles runAvg speedWind from/ knotsBaromVisibWave heightAir tempDewpointWater temp
2015-Aug-28 00:00N 52°18' E 164°42'87918.3 050 / 221008.0 2.2 3.013.013.011.0
2015-Aug-26 00:00N 43°36' E 147°06'22919.1 330 / 51016.010.8 16.015.214.0
2015-Aug-25 12:00N 41°42' E 142°36'24220.2 120 / 131015.010.8 1.021.515.219.0
2015-Aug-25 00:00N 39°48' E 137°54'24420.3 070 / 271010.0 5.4 3.023.018.524.0
2015-Aug-24 12:00N 37°12' E 133°54'24620.5 040 / 291009.0 5.4 4.027.024.324.0
2015-Aug-24 00:00N 34°30' E 130°06'6618.3 070 / 291007.010.8 4.027.024.324.0
2015-Aug-23 20:25N 33°50' E 129°04'42318.4
2015-Aug-22 21:28N 29°48' E 122°15'12 0.9
2015-Aug-22 08:26N 29°54' E 122°03'75 7.6
2015-Aug-21 22:33N 31°06' E 122°26'1413.5
2015-Aug-21 21:34N 31°11' E 122°11'1414.3
2015-Aug-21 20:34N 31°16' E 121°55'1312.9
2015-Aug-21 19:33N 31°20' E 121°41'6 5.7
2015-Aug-21 18:32N 31°23' E 121°35'0 0.0
2015-Aug-21 17:32N 31°23' E 121°35'0 0.0
2015-Aug-21 16:32N 31°23' E 121°35'0 0.0
2015-Aug-21 15:32N 31°23' E 121°35'0 0.0
2015-Aug-21 14:32N 31°23' E 121°35'0 0.0
2015-Aug-21 13:29N 31°23' E 121°35'0 0.0
2015-Aug-21 12:32N 31°23' E 121°35'0 0.0
2015-Aug-21 11:32N 31°23' E 121°35'0 0.0
2015-Aug-21 10:32N 31°23' E 121°35'0 0.0
2015-Aug-21 09:32N 31°23' E 121°35'0 0.0
2015-Aug-21 08:32N 31°23' E 121°35'1 0.8
2015-Aug-21 07:34N 31°23' E 121°34'9 9.0
2015-Aug-21 06:33N 31°19' E 121°44'1010.5
2015-Aug-21 05:33N 31°16' E 121°55'1111.2
2015-Aug-21 04:33N 31°13' E 122°08'1010.3
2015-Aug-21 03:33N 31°07' E 122°18'8 8.1
2015-Aug-21 02:33N 31°07' E 122°27'9 8.5
2015-Aug-21 01:32N 31°14' E 122°33'  

Dump ship's entire track history